createdAt,value
2023-10-13T00:01:55.785Z,4.70
2023-10-13T00:03:58.735Z,5.35
2023-10-13T00:06:04.086Z,3.42
2023-10-13T00:08:07.416Z,4.80
2023-10-13T00:10:19.785Z,4.95
2023-10-13T00:12:24.611Z,5.93
2023-10-13T00:14:34.274Z,3.58
2023-10-13T00:18:43.145Z,4.90
2023-10-13T00:20:50.377Z,5.35
2023-10-13T00:22:53.136Z,4.88
2023-10-13T00:24:59.855Z,4.88
2023-10-13T00:27:05.895Z,5.18
2023-10-13T00:29:17.224Z,4.97
2023-10-13T00:31:19.097Z,5.78
2023-10-13T00:33:22.643Z,5.43
2023-10-13T00:35:29.281Z,4.03
2023-10-13T00:37:42.421Z,3.95
2023-10-13T00:39:46.602Z,4.97
2023-10-13T00:41:53.092Z,5.05
2023-10-13T00:44:06.044Z,3.95
2023-10-13T00:46:14.097Z,3.88
2023-10-13T00:48:17.931Z,3.72
2023-10-13T00:50:19.640Z,5.13
2023-10-13T00:52:23.796Z,3.00
2023-10-13T00:54:28.188Z,5.63
2023-10-13T00:56:32.947Z,4.03
2023-10-13T00:58:35.282Z,4.15
2023-10-13T01:00:48.378Z,4.70
2023-10-13T01:02:56.987Z,4.53
2023-10-13T01:04:59.958Z,4.55
2023-10-13T01:07:01.914Z,5.13
2023-10-13T01:09:14.080Z,5.28
2023-10-13T01:11:15.808Z,4.20
2023-10-13T01:13:18.912Z,5.43
2023-10-13T01:15:23.212Z,3.58
2023-10-13T01:17:32.827Z,4.95
2023-10-13T01:19:40.000Z,4.30
2023-10-13T01:21:42.867Z,5.32
2023-10-13T01:23:47.670Z,4.22
2023-10-13T01:25:50.521Z,6.30
2023-10-13T01:27:53.419Z,4.78
2023-10-13T01:29:59.712Z,4.25
2023-10-13T01:32:01.560Z,4.68
2023-10-13T01:34:04.474Z,4.13
2023-10-13T01:36:10.832Z,4.43
2023-10-13T01:38:14.559Z,4.35
2023-10-13T01:40:20.379Z,5.43
2023-10-13T01:42:23.725Z,5.28
2023-10-13T01:44:29.116Z,4.15
2023-10-13T01:46:32.107Z,5.03
2023-10-13T01:48:34.181Z,4.10
2023-10-13T01:50:38.428Z,5.72
2023-10-13T01:52:40.123Z,6.00
2023-10-13T01:54:45.624Z,5.82
2023-10-13T01:56:50.171Z,4.50
2023-10-13T01:58:54.726Z,5.13
2023-10-13T02:00:57.724Z,4.50
2023-10-13T02:03:01.950Z,6.80
2023-10-13T02:05:04.075Z,5.63
2023-10-13T02:07:09.295Z,4.65
2023-10-13T02:09:14.104Z,6.45
2023-10-13T02:11:19.787Z,6.65
2023-10-13T02:13:24.485Z,4.28
2023-10-13T02:15:35.536Z,6.78
2023-10-13T02:17:42.687Z,6.30
2023-10-13T02:19:46.608Z,5.95
2023-10-13T02:21:59.657Z,6.28
2023-10-13T02:24:04.808Z,6.32
2023-10-13T02:26:12.776Z,6.82
2023-10-13T02:28:15.967Z,6.28
2023-10-13T02:30:24.997Z,4.95
2023-10-13T02:32:28.222Z,5.03
2023-10-13T02:34:32.811Z,4.85
2023-10-13T02:36:45.142Z,4.40
2023-10-13T02:38:47.591Z,5.63
2023-10-13T02:40:50.303Z,6.43
2023-10-13T02:42:51.948Z,7.18
2023-10-13T02:44:57.112Z,6.15
2023-10-13T02:47:00.539Z,4.97
2023-10-13T02:49:10.643Z,5.15
2023-10-13T02:51:26.615Z,5.43
2023-10-13T02:53:30.417Z,7.43
2023-10-13T02:55:33.685Z,5.25
2023-10-13T02:57:36.432Z,6.85
2023-10-13T02:59:41.510Z,4.65
2023-10-13T03:01:44.682Z,6.53
2023-10-13T03:03:51.143Z,5.07
2023-10-13T03:05:53.889Z,5.50
2023-10-13T03:07:56.332Z,6.75
2023-10-13T03:10:01.664Z,4.55
2023-10-13T03:12:05.117Z,5.80
2023-10-13T03:14:08.827Z,6.25
2023-10-13T03:16:16.921Z,5.57
2023-10-13T03:18:20.091Z,9.25
2023-10-13T03:20:25.336Z,5.80
2023-10-13T03:22:32.695Z,5.82
2023-10-13T03:24:34.814Z,5.03
2023-10-13T03:26:38.876Z,3.95
2023-10-13T03:33:01.954Z,5.20
2023-10-13T03:35:13.832Z,6.97
2023-10-13T03:37:19.467Z,5.15
2023-10-13T03:39:28.349Z,5.90
2023-10-13T03:45:44.485Z,6.80
2023-10-13T03:47:47.257Z,5.20
2023-10-13T03:49:52.534Z,6.90
2023-10-13T03:54:09.565Z,4.78
2023-10-13T03:56:13.468Z,5.15
2023-10-13T03:58:17.794Z,6.25
2023-10-13T04:00:29.487Z,5.28
2023-10-13T04:04:49.892Z,5.28
2023-10-13T04:07:14.395Z,6.88
2023-10-13T04:09:32.712Z,6.55
2023-10-13T04:11:53.650Z,6.38
2023-10-13T04:14:13.838Z,6.78
2023-10-13T04:16:33.002Z,8.30
2023-10-13T04:19:05.131Z,7.25
2023-10-13T04:21:20.043Z,7.88
2023-10-13T04:23:27.217Z,7.00
2023-10-13T04:25:40.131Z,7.75
2023-10-13T04:27:55.063Z,6.93
2023-10-13T04:30:11.748Z,5.53
2023-10-13T04:32:15.876Z,7.28
2023-10-13T04:34:28.489Z,7.43
2023-10-13T04:36:46.464Z,8.07
2023-10-13T04:39:06.699Z,5.47
2023-10-13T04:41:23.417Z,5.28
2023-10-13T04:43:34.244Z,5.53
2023-10-13T04:45:55.034Z,6.68
2023-10-13T04:47:58.911Z,7.13
2023-10-13T04:50:02.655Z,5.45
2023-10-13T04:52:14.174Z,7.35
2023-10-13T04:54:27.210Z,7.65
2023-10-13T04:56:45.184Z,5.95
2023-10-13T04:59:05.469Z,7.63
2023-10-13T05:01:45.730Z,6.63
2023-10-13T05:03:55.835Z,6.80
2023-10-13T05:06:33.476Z,5.90
2023-10-13T05:08:53.556Z,7.82
2023-10-13T05:11:13.495Z,5.78
2023-10-13T05:13:35.051Z,6.13
2023-10-13T05:16:02.039Z,6.72
2023-10-13T05:18:22.453Z,6.00
2023-10-13T05:20:42.529Z,5.57
2023-10-13T05:23:02.581Z,7.38
2023-10-13T05:25:22.783Z,6.75
2023-10-13T05:27:42.967Z,7.28
2023-10-13T05:30:05.249Z,6.45
2023-10-13T05:32:25.265Z,5.40
2023-10-13T05:34:45.430Z,8.63
2023-10-13T05:37:05.596Z,6.05
2023-10-13T05:39:25.416Z,4.30
2023-10-13T05:41:45.302Z,6.88
2023-10-13T05:44:05.646Z,6.88
2023-10-13T05:46:27.513Z,5.28
2023-10-13T05:48:53.585Z,5.07
2023-10-13T05:51:15.774Z,5.30
2023-10-13T05:53:36.006Z,6.65
2023-10-13T05:55:52.732Z,5.65
2023-10-13T05:58:12.969Z,5.63
2023-10-13T06:00:33.756Z,6.35
2023-10-13T06:03:09.686Z,6.15
2023-10-13T06:05:30.402Z,6.68
2023-10-13T06:07:50.663Z,6.80
2023-10-13T06:10:11.339Z,7.97
2023-10-13T06:12:31.379Z,6.53
2023-10-13T06:14:51.494Z,7.53
2023-10-13T06:17:20.164Z,7.07
2023-10-13T06:19:44.359Z,7.85
2023-10-13T06:22:04.785Z,6.57
2023-10-13T06:24:25.151Z,6.80
2023-10-13T06:26:45.432Z,7.35
2023-10-13T06:28:50.595Z,5.35
2023-10-13T06:33:06.577Z,5.40
2023-10-13T06:35:20.045Z,6.03
2023-10-13T06:37:26.984Z,6.05
2023-10-13T06:39:37.139Z,6.40
2023-10-13T06:41:41.919Z,5.10
2023-10-13T06:43:44.749Z,6.63
2023-10-13T06:45:52.163Z,6.68
2023-10-13T06:47:56.835Z,5.70
2023-10-13T06:50:01.210Z,6.45
2023-10-13T06:52:07.743Z,6.93
2023-10-13T06:54:20.123Z,7.90
2023-10-13T06:56:28.258Z,7.03
2023-10-13T06:58:31.438Z,6.43
2023-10-13T07:00:35.913Z,6.57
2023-10-13T07:02:38.970Z,6.00
2023-10-13T07:04:41.909Z,6.75
2023-10-13T07:06:49.037Z,6.53
2023-10-13T07:08:53.158Z,6.28
2023-10-13T07:11:04.011Z,6.15
2023-10-13T07:13:09.042Z,5.90
2023-10-13T07:15:20.592Z,6.95
2023-10-13T07:17:25.872Z,6.70
2023-10-13T07:19:29.938Z,6.60
2023-10-13T07:21:33.273Z,6.40
2023-10-13T07:23:37.077Z,6.22
2023-10-13T07:25:42.080Z,6.32
2023-10-13T07:27:44.921Z,5.35
2023-10-13T07:29:47.004Z,7.20
2023-10-13T07:31:49.769Z,7.30
2023-10-13T07:33:51.457Z,7.47
2023-10-13T07:36:02.501Z,7.18
2023-10-13T07:38:08.817Z,6.40
2023-10-13T07:40:28.942Z,5.93
2023-10-13T07:42:40.357Z,6.18
2023-10-13T07:44:47.338Z,6.28
2023-10-13T07:46:59.561Z,6.03
2023-10-13T07:49:10.631Z,7.53
2023-10-13T07:51:17.063Z,6.07
2023-10-13T07:53:23.772Z,6.57
2023-10-13T07:55:27.074Z,7.07
2023-10-13T07:57:31.349Z,7.93
2023-10-13T07:59:36.209Z,7.53
2023-10-13T08:01:44.213Z,6.55
2023-10-13T08:03:46.629Z,7.90
2023-10-13T08:05:59.464Z,6.25
2023-10-13T08:08:02.098Z,5.70
2023-10-13T08:10:06.084Z,6.93
2023-10-13T08:12:12.815Z,5.30
2023-10-13T08:14:37.754Z,6.45
2023-10-13T08:16:55.499Z,6.78
2023-10-13T08:18:57.473Z,7.10
2023-10-13T08:21:04.549Z,6.18
2023-10-13T08:23:15.412Z,6.40
2023-10-13T08:25:22.028Z,6.00
2023-10-13T08:27:49.318Z,9.05
2023-10-13T08:30:14.941Z,8.93
2023-10-13T08:32:37.762Z,7.28
2023-10-13T08:35:00.912Z,7.95
2023-10-13T08:37:20.305Z,7.88
2023-10-13T08:39:36.962Z,9.82
2023-10-13T08:41:55.080Z,8.10
2023-10-13T08:44:04.725Z,7.32
2023-10-13T08:46:08.898Z,7.20
2023-10-13T08:48:14.460Z,7.07
2023-10-13T08:50:43.797Z,8.27
2023-10-13T08:52:50.333Z,8.23
2023-10-13T08:55:13.889Z,8.02
2023-10-13T08:57:31.294Z,7.13
2023-10-13T08:59:54.091Z,7.88
2023-10-13T09:02:01.153Z,8.20
2023-10-13T09:04:23.663Z,8.60
2023-10-13T09:06:27.407Z,8.43
2023-10-13T09:08:36.477Z,9.60
2023-10-13T09:11:01.145Z,7.40
2023-10-13T09:13:03.988Z,10.38
2023-10-13T09:15:18.373Z,12.20
2023-10-13T09:17:35.426Z,8.23
2023-10-13T09:19:49.491Z,11.23
2023-10-13T09:21:56.025Z,7.78
2023-10-13T09:24:12.954Z,8.82
2023-10-13T09:26:18.081Z,9.23
2023-10-13T09:28:20.367Z,11.98
2023-10-13T09:30:24.896Z,9.40
2023-10-13T09:32:28.963Z,10.80
2023-10-13T09:34:34.732Z,9.57
2023-10-13T09:36:38.158Z,8.98
2023-10-13T09:38:41.809Z,7.43
2023-10-13T09:40:47.868Z,10.75
2023-10-13T09:42:50.724Z,9.43
2023-10-13T09:44:53.292Z,9.35
2023-10-13T09:47:00.728Z,8.45
2023-10-13T09:49:09.594Z,9.13
2023-10-13T09:51:14.658Z,9.90
2023-10-13T09:53:19.312Z,9.70
2023-10-13T09:55:27.190Z,11.25
2023-10-13T09:57:35.901Z,11.45
2023-10-13T10:01:59.386Z,9.27
2023-10-13T10:04:10.215Z,13.68
2023-10-13T10:06:28.738Z,8.07
2023-10-13T10:08:37.719Z,10.30
2023-10-13T10:10:48.879Z,13.07
2023-10-13T10:12:56.295Z,11.80
2023-10-13T10:15:21.437Z,15.73
2023-10-13T10:17:24.602Z,9.63
2023-10-13T10:19:28.246Z,10.15
2023-10-13T10:21:37.494Z,10.93
2023-10-13T10:23:42.917Z,9.98
2023-10-13T10:25:47.373Z,12.20
2023-10-13T10:27:57.680Z,11.05
2023-10-13T10:30:00.639Z,12.48
2023-10-13T10:32:14.546Z,12.40
2023-10-13T10:34:20.057Z,11.63
2023-10-13T10:36:30.942Z,12.52
2023-10-13T10:38:39.622Z,12.63
2023-10-13T10:40:58.330Z,10.30
2023-10-13T10:43:06.773Z,12.57
2023-10-13T10:45:13.891Z,11.07
2023-10-13T10:47:21.315Z,9.57
2023-10-13T10:49:30.619Z,11.52
2023-10-13T10:51:35.061Z,10.38
2023-10-13T10:53:44.749Z,10.57
2023-10-13T10:55:47.638Z,10.98
2023-10-13T10:58:02.660Z,10.40
2023-10-13T11:00:12.589Z,10.32
2023-10-13T11:02:19.701Z,9.75
2023-10-13T11:04:34.838Z,10.15
2023-10-13T11:06:43.553Z,11.05
2023-10-13T11:08:52.529Z,12.98
2023-10-13T11:10:54.363Z,10.27
2023-10-13T11:12:57.723Z,9.68
2023-10-13T11:15:06.616Z,9.63
2023-10-13T11:17:22.382Z,8.77
2023-10-13T11:19:36.240Z,11.13
2023-10-13T11:21:39.179Z,8.90
2023-10-13T11:23:41.948Z,11.75
2023-10-13T11:25:45.962Z,12.90
2023-10-13T11:27:57.923Z,12.50
2023-10-13T11:30:06.619Z,13.50
2023-10-13T11:32:20.998Z,12.43
2023-10-13T11:34:23.906Z,14.93
2023-10-13T11:36:30.378Z,13.52
2023-10-13T11:38:44.028Z,12.18
2023-10-13T11:41:07.851Z,23.00
2023-10-13T11:43:14.875Z,19.52
2023-10-13T11:45:32.601Z,28.10
2023-10-13T11:47:49.071Z,24.20
2023-10-13T11:49:57.749Z,16.42
2023-10-13T11:52:10.383Z,24.88
2023-10-13T11:54:13.097Z,17.02
2023-10-13T11:56:18.598Z,11.23
2023-10-13T11:58:21.464Z,18.83
2023-10-13T12:00:48.315Z,15.43
2023-10-13T12:03:10.199Z,13.75
2023-10-13T12:05:17.886Z,11.10
2023-10-13T12:07:22.915Z,17.50
2023-10-13T12:09:42.871Z,11.75
2023-10-13T12:11:46.269Z,14.10
2023-10-13T12:13:50.004Z,12.93
2023-10-13T12:20:19.224Z,13.48
2023-10-13T12:24:41.084Z,11.05
2023-10-13T12:26:44.178Z,12.55
2023-10-13T12:28:52.850Z,15.38
2023-10-13T12:30:55.335Z,19.92
2023-10-13T12:33:07.577Z,12.38
2023-10-13T12:35:31.091Z,11.00
2023-10-13T12:37:52.226Z,12.65
2023-10-13T12:40:12.404Z,13.85
2023-10-13T12:42:29.317Z,11.65
2023-10-13T12:49:38.224Z,11.95
2023-10-13T12:56:13.632Z,12.63
2023-10-13T13:02:35.485Z,11.25
2023-10-13T13:04:38.885Z,12.23
2023-10-13T13:08:50.709Z,11.73
2023-10-13T13:10:53.876Z,12.00
2023-10-13T13:15:09.646Z,9.68
2023-10-13T13:17:12.456Z,13.40
2023-10-13T13:19:15.674Z,15.35
2023-10-13T13:23:33.467Z,10.77
2023-10-13T13:25:43.690Z,10.88
2023-10-13T13:27:46.565Z,11.15
2023-10-13T13:29:49.240Z,14.20
2023-10-13T13:31:51.086Z,17.67
2023-10-13T13:33:53.813Z,16.23
2023-10-13T13:36:00.659Z,15.73
2023-10-13T13:38:11.200Z,16.58
2023-10-13T13:40:16.704Z,14.48
2023-10-13T13:42:19.496Z,24.35
2023-10-13T13:44:22.383Z,18.58
2023-10-13T13:46:28.535Z,15.05
2023-10-13T13:48:33.839Z,16.60
2023-10-13T13:50:42.190Z,15.38
2023-10-13T13:52:47.956Z,16.30
2023-10-13T13:54:50.748Z,18.95
2023-10-13T13:56:55.072Z,15.15
2023-10-13T13:58:57.809Z,19.48
2023-10-13T14:01:12.772Z,16.42
2023-10-13T14:03:32.205Z,11.45
2023-10-13T14:05:35.336Z,18.40
2023-10-13T14:07:38.718Z,16.83
2023-10-13T14:09:45.083Z,20.63
2023-10-13T14:12:19.850Z,37.25
2023-10-13T14:14:34.631Z,39.33
2023-10-13T14:16:38.539Z,47.45
2023-10-13T14:18:43.613Z,43.85
2023-10-13T14:20:46.435Z,36.83
2023-10-13T14:22:50.316Z,38.45
2023-10-13T14:24:56.112Z,32.17
2023-10-13T14:27:00.010Z,32.05
2023-10-13T14:29:03.058Z,35.40
2023-10-13T14:31:11.050Z,28.38
2023-10-13T14:33:14.158Z,30.52
2023-10-13T14:35:16.943Z,28.65
2023-10-13T14:37:27.648Z,26.15
2023-10-13T14:39:31.290Z,25.02
2023-10-13T14:41:34.640Z,21.25
2023-10-13T14:43:37.443Z,24.70
2023-10-13T14:45:40.234Z,23.55
2023-10-13T14:47:44.600Z,23.27
2023-10-13T14:49:47.515Z,26.58
2023-10-13T14:51:50.901Z,24.63
2023-10-13T14:53:57.383Z,22.45
2023-10-13T14:56:02.670Z,22.38
2023-10-13T14:58:05.757Z,23.35
2023-10-13T15:00:17.591Z,24.25
2023-10-13T15:02:21.101Z,27.40
2023-10-13T15:04:26.276Z,19.15
2023-10-13T15:06:30.045Z,22.98
2023-10-13T15:08:32.816Z,19.67
2023-10-13T15:10:37.570Z,17.60
2023-10-13T15:12:41.981Z,15.05
2023-10-13T15:18:55.856Z,17.23
2023-10-13T15:21:00.105Z,18.55
2023-10-13T15:23:03.224Z,17.73
2023-10-13T15:25:18.101Z,17.45
2023-10-13T15:27:22.579Z,17.92
2023-10-13T15:29:27.628Z,12.02
2023-10-13T15:31:39.577Z,13.27
2023-10-13T15:33:44.581Z,16.63
2023-10-13T15:35:47.596Z,15.60
2023-10-13T15:37:53.022Z,13.73
2023-10-13T15:39:59.057Z,14.93
2023-10-13T15:42:03.546Z,18.63
2023-10-13T15:44:10.831Z,15.52
2023-10-13T15:47:14.004Z,13.98
2023-10-13T15:48:40.313Z,16.63
2023-10-13T15:50:43.597Z,14.27
2023-10-13T15:52:47.961Z,15.90
2023-10-13T15:54:52.184Z,13.82
2023-10-13T15:56:55.684Z,14.82
2023-10-13T15:58:58.518Z,18.55
2023-10-13T16:01:02.168Z,14.82
2023-10-13T16:03:11.486Z,15.45
2023-10-13T16:05:14.859Z,13.70
2023-10-13T16:07:19.204Z,12.95
2023-10-13T16:09:24.647Z,16.35
2023-10-13T16:11:29.120Z,14.20
2023-10-13T16:13:32.401Z,17.98
2023-10-13T16:15:39.558Z,19.45
2023-10-13T16:17:42.395Z,14.75
2023-10-13T16:19:45.190Z,14.88
2023-10-13T16:21:48.013Z,16.00
2023-10-13T16:23:51.693Z,14.82
2023-10-13T16:25:57.584Z,20.55
2023-10-13T16:28:01.790Z,16.17
2023-10-13T16:30:04.890Z,21.25
2023-10-13T16:32:10.061Z,21.10
2023-10-13T16:34:13.116Z,32.63
2023-10-13T16:36:15.928Z,26.35
2023-10-13T16:38:17.648Z,31.85
2023-10-13T16:40:20.876Z,27.10
2023-10-13T16:42:23.191Z,23.92
2023-10-13T16:44:27.942Z,18.40
2023-10-13T16:46:32.907Z,22.13
2023-10-13T16:48:37.155Z,22.58
2023-10-13T16:50:38.935Z,23.67
2023-10-13T16:59:06.613Z,29.75
2023-10-13T17:01:12.698Z,22.70
2023-10-13T17:03:16.453Z,19.55
2023-10-13T17:05:19.477Z,22.63
2023-10-13T17:07:22.342Z,21.65
2023-10-13T17:09:25.667Z,17.00
2023-10-13T17:11:29.227Z,15.48
2023-10-13T17:13:33.029Z,18.10
2023-10-13T17:15:37.952Z,16.08
2023-10-13T17:17:43.320Z,17.05
2023-10-13T17:19:50.756Z,18.08
2023-10-13T17:21:53.777Z,15.52
2023-10-13T17:23:57.542Z,14.27
2023-10-13T17:26:00.983Z,15.95
2023-10-13T17:28:05.803Z,14.80
2023-10-13T17:30:09.048Z,18.40
2023-10-13T17:32:11.932Z,18.23
2023-10-13T17:34:18.178Z,17.75
2023-10-13T17:36:20.949Z,20.58
2023-10-13T17:38:22.705Z,17.30
2023-10-13T17:40:27.023Z,13.50
2023-10-13T17:42:28.846Z,17.38
2023-10-13T17:44:31.592Z,18.60
2023-10-13T17:46:34.332Z,16.75
2023-10-13T17:48:36.598Z,16.80
2023-10-13T17:50:40.677Z,15.90
2023-10-13T17:52:43.512Z,18.13
2023-10-13T17:54:47.109Z,21.67
2023-10-13T17:56:50.696Z,19.17
2023-10-13T17:58:54.902Z,16.00
2023-10-13T18:00:57.728Z,19.58
2023-10-13T18:03:04.970Z,16.52
2023-10-13T18:05:11.424Z,19.08
2023-10-13T18:07:15.157Z,18.15
2023-10-13T18:09:18.104Z,18.85
2023-10-13T18:11:25.080Z,24.05
2023-10-13T18:13:28.006Z,18.83
2023-10-13T18:15:30.774Z,17.52
2023-10-13T18:17:33.636Z,16.58
2023-10-13T18:19:36.868Z,20.50
2023-10-13T18:21:39.911Z,24.52
2023-10-13T18:23:44.430Z,26.98
2023-10-13T18:25:47.288Z,29.25
2023-10-13T18:27:49.983Z,22.50
2023-10-13T18:29:52.620Z,22.05
2023-10-13T18:31:56.769Z,31.23
2023-10-13T18:34:00.015Z,25.17
2023-10-13T18:36:12.088Z,29.90
2023-10-13T18:38:14.817Z,23.77
2023-10-13T18:40:18.955Z,23.55
2023-10-13T18:42:22.171Z,20.83
2023-10-13T18:44:25.685Z,20.25
2023-10-13T18:46:30.146Z,21.25
2023-10-13T18:48:34.144Z,22.30
2023-10-13T18:50:35.963Z,18.83
2023-10-13T18:52:38.789Z,18.95
2023-10-13T18:54:41.938Z,23.25
2023-10-13T18:56:46.136Z,21.60
2023-10-13T18:58:54.830Z,21.65
2023-10-13T19:00:57.752Z,16.92
2023-10-13T19:03:06.476Z,18.25
2023-10-13T19:05:10.707Z,18.40
2023-10-13T19:07:13.876Z,19.33
2023-10-13T19:09:25.961Z,18.02
2023-10-13T19:11:28.844Z,16.80
2023-10-13T19:13:32.936Z,17.33
2023-10-13T19:15:39.269Z,20.98
2023-10-13T19:17:42.434Z,20.08
2023-10-13T19:19:46.093Z,18.10
2023-10-13T19:21:48.911Z,18.08
2023-10-13T19:23:52.325Z,19.55
2023-10-13T19:25:56.699Z,18.58
2023-10-13T19:28:00.417Z,17.75
2023-10-13T19:30:07.540Z,15.70
2023-10-13T19:32:10.463Z,17.90
2023-10-13T19:34:18.444Z,17.20
2023-10-13T19:36:23.901Z,16.25
2023-10-13T19:38:29.991Z,17.10
2023-10-13T19:40:34.713Z,15.82
2023-10-13T19:42:37.531Z,15.63
2023-10-13T19:44:42.330Z,13.75
2023-10-13T19:46:49.036Z,17.60
2023-10-13T19:48:52.150Z,16.35
2023-10-13T19:50:56.097Z,14.38
2023-10-13T19:53:01.338Z,14.45
2023-10-13T19:55:04.350Z,18.85
2023-10-13T19:57:07.084Z,13.20
2023-10-13T19:59:09.992Z,15.48
2023-10-13T20:01:16.455Z,14.50
2023-10-13T20:03:21.227Z,14.07
2023-10-13T20:05:24.109Z,14.73
2023-10-13T20:07:27.652Z,16.65
2023-10-13T20:09:30.320Z,12.75
2023-10-13T20:11:33.021Z,16.30
2023-10-13T20:13:36.752Z,16.88
2023-10-13T20:15:39.578Z,14.25
2023-10-13T20:17:43.278Z,19.58
2023-10-13T20:19:48.862Z,13.18
2023-10-13T20:21:51.584Z,12.52
2023-10-13T20:23:55.685Z,12.35
2023-10-13T20:25:58.456Z,11.07
2023-10-13T20:28:01.990Z,10.63
2023-10-13T20:30:09.766Z,10.25
2023-10-13T20:32:15.806Z,11.77
2023-10-13T20:34:20.967Z,8.48
2023-10-13T20:36:26.841Z,12.23
2023-10-13T20:38:29.754Z,10.25
2023-10-13T20:40:34.270Z,10.00
2023-10-13T20:42:37.205Z,11.57
2023-10-13T20:44:41.334Z,11.10
2023-10-13T20:46:44.047Z,10.73
2023-10-13T20:48:48.065Z,12.02
2023-10-13T20:50:58.093Z,9.15
2023-10-13T20:53:03.452Z,8.73
2023-10-13T20:55:06.077Z,9.35
2023-10-13T20:57:11.308Z,8.95
2023-10-13T20:59:15.824Z,7.40
2023-10-13T21:01:22.551Z,8.05
2023-10-13T21:03:26.328Z,9.18
2023-10-13T21:05:32.916Z,7.95
2023-10-13T21:07:34.877Z,8.18
2023-10-13T21:09:39.016Z,9.75
2023-10-13T21:11:43.972Z,6.78
2023-10-13T21:13:47.114Z,8.65
2023-10-13T21:15:49.821Z,8.63
2023-10-13T21:17:53.028Z,11.30
2023-10-13T21:19:57.398Z,8.38
2023-10-13T21:22:00.162Z,8.98
2023-10-13T21:24:05.173Z,7.78
2023-10-13T21:26:09.309Z,9.70
2023-10-13T21:28:13.253Z,7.45
2023-10-13T21:30:15.004Z,7.82
2023-10-13T21:32:17.699Z,7.95
2023-10-13T21:34:20.373Z,8.32
2023-10-13T21:36:25.463Z,9.23
2023-10-13T21:38:28.980Z,8.20
2023-10-13T21:40:31.691Z,9.80
2023-10-13T21:42:37.109Z,8.32
2023-10-13T21:44:39.974Z,9.15
2023-10-13T21:46:45.822Z,8.63
2023-10-13T21:48:49.334Z,7.47
2023-10-13T21:50:52.085Z,7.70
2023-10-13T21:52:55.094Z,7.00
2023-10-13T21:54:58.721Z,7.65
2023-10-13T21:57:02.661Z,6.03
2023-10-13T21:59:11.684Z,10.63
2023-10-13T22:01:29.105Z,7.25
2023-10-13T22:03:32.618Z,7.13
2023-10-13T22:05:36.527Z,7.10
2023-10-13T22:07:39.494Z,7.80
2023-10-13T22:09:44.023Z,6.45
2023-10-13T22:11:47.037Z,7.55
2023-10-13T22:13:49.763Z,7.10
2023-10-13T22:15:54.082Z,5.90
2023-10-13T22:17:55.914Z,5.90
2023-10-13T22:19:58.671Z,6.97
2023-10-13T22:22:02.089Z,6.72
2023-10-13T22:24:04.997Z,6.13
2023-10-13T22:26:12.372Z,6.28
2023-10-13T22:28:16.482Z,7.13
2023-10-13T22:30:22.929Z,5.80
2023-10-13T22:32:27.682Z,5.10
2023-10-13T22:34:30.467Z,6.60
2023-10-13T22:36:33.214Z,6.10
2023-10-13T22:38:36.381Z,6.70
2023-10-13T22:40:41.896Z,6.35
2023-10-13T22:42:46.966Z,5.80
2023-10-13T22:44:49.798Z,7.18
2023-10-13T22:46:54.819Z,4.28
2023-10-13T22:48:59.006Z,5.53
2023-10-13T22:51:01.837Z,6.30
2023-10-13T22:53:06.883Z,4.93
2023-10-13T22:55:20.689Z,4.65
2023-10-13T22:57:23.540Z,4.80
2023-10-13T22:59:25.336Z,5.20
2023-10-13T23:01:29.197Z,5.20
2023-10-13T23:03:37.420Z,6.72
2023-10-13T23:05:53.335Z,6.10
2023-10-13T23:08:01.954Z,4.93
2023-10-13T23:10:05.820Z,3.40
2023-10-13T23:12:12.722Z,4.68
2023-10-13T23:14:15.674Z,4.55
2023-10-13T23:16:18.477Z,5.20
2023-10-13T23:18:24.742Z,5.57
2023-10-13T23:20:30.848Z,4.78
2023-10-13T23:22:35.621Z,5.93
2023-10-13T23:24:38.812Z,4.70
2023-10-13T23:26:40.800Z,5.65
2023-10-13T23:28:46.843Z,4.75
2023-10-13T23:30:50.709Z,4.70
2023-10-13T23:32:53.592Z,3.95
2023-10-13T23:34:59.653Z,4.03
2023-10-13T23:37:04.650Z,4.22
2023-10-13T23:39:11.481Z,4.65
2023-10-13T23:41:14.276Z,4.43
2023-10-13T23:43:23.620Z,3.13
2023-10-13T23:45:26.490Z,4.93
2023-10-13T23:47:31.811Z,3.72
2023-10-13T23:49:34.570Z,3.75
2023-10-13T23:51:37.479Z,3.75
2023-10-13T23:53:39.437Z,3.60
2023-10-13T23:55:43.537Z,3.15
2023-10-13T23:57:51.594Z,3.33
2023-10-13T23:59:57.362Z,4.13
